Home > Products > Valid Products > TAF

000
FTUS44 KEWX 021100
TAFSAT
TAF
KSAT 021120Z 0212/0318 16007KT P6SM BKN017
     FM021600 16011KT P6SM BKN040
     FM022100 14014G21KT P6SM SCT060 SCT250
     FM030300 15012KT P6SM SKC
     FM030700 17007KT P6SM BKN015
     FM031600 16011KT P6SM SCT040=



000
FTUS44 KEWX 021100
TAFDRT
TAF
KDRT 021120Z 0212/0312 11010KT P6SM BKN020
     FM021600 14012G19KT P6SM SCT040
     FM030200 12010KT P6SM FEW060=



000
FTUS44 KEWX 021100
TAFAUS
TAF
KAUS 021120Z 0212/0318 17005KT P6SM BKN015
     FM021600 17010KT P6SM BKN040
     FM022100 15012G22KT P6SM SCT060 SCT250
     FM030200 16010KT P6SM FEW060
     FM030700 17005KT P6SM BKN015
     FM031600 17010KT P6SM SCT040=



000
FTUS44 KEWX 020600 AAA
TAFAUS
TAF AMD
KAUS 020651Z 0207/0312 17007KT P6SM BKN015
     FM021600 17010KT P6SM BKN040
     FM022100 15012G22KT P6SM SCT060 SCT250
     FM030200 16010KT P6SM FEW060
     FM030900 17007KT P6SM BKN015=



000
FTUS44 KEWX 020600 AAA
TAFSAT
TAF AMD
KSAT 020651Z 0207/0312 16007KT P6SM BKN015
     FM021600 16010KT P6SM BKN040
     FM022100 14014KT P6SM SCT060 SCT250
     FM030100 14014G24KT P6SM FEW060
     FM030400 15007KT P6SM SKC
     FM030900 17007KT P6SM BKN015=



000
FTUS44 KEWX 020500
TAFSAT
TAF
KSAT 020520Z 0206/0312 14011KT P6SM SKC
     FM020800 16007KT P6SM BKN015
     FM021600 16010KT P6SM BKN040
     FM022100 14014KT P6SM SCT060 SCT250
     FM030100 14014G24KT P6SM FEW060
     FM030400 15007KT P6SM SKC
     FM030900 17007KT P6SM BKN015=



000
FTUS44 KEWX 020500
TAFAUS
TAF
KAUS 020520Z 0206/0312 17010KT P6SM SKC
     FM020800 17007KT P6SM BKN015
     FM021600 17010KT P6SM BKN040
     FM022100 15012G22KT P6SM SCT060 SCT250
     FM030200 16010KT P6SM FEW060
     FM030900 17007KT P6SM BKN015=



000
FTUS44 KEWX 020500
TAFDRT
TAF
KDRT 020520Z 0206/0306 12009KT P6SM SKC
     FM021200 12010KT P6SM BKN020
     FM021600 14012G22KT P6SM SCT040
     FM030200 12010KT P6SM SCT060=



000
FTUS44 KEWX 020300 AAA
TAFDRT
TAF AMD
KDRT 020301Z 0203/0224 12008KT P6SM SKC
     FM020600 12014KT P6SM SKC
     FM021200 12010KT P6SM BKN020
     FM021600 14012G22KT P6SM FEW040=



000
FTUS44 KEWX 012300
TAFAUS
TAF
KAUS 012323Z 0200/0306 15012KT P6SM SCT070 SCT250
     FM020600 17007KT P6SM BKN015
     FM021600 17010KT P6SM BKN040
     FM022100 15012G22KT P6SM SCT060 SCT250
     FM030200 15010KT P6SM FEW060=



000
FTUS44 KEWX 012300
TAFDRT
TAF
KDRT 012323Z 0200/0224 12010G20KT P6SM SKC
     FM020600 12014KT P6SM SKC
     FM021200 12010KT P6SM BKN020
     FM021600 14012G22KT P6SM FEW040=



000
FTUS44 KEWX 012300
TAFSAT
TAF
KSAT 012323Z 0200/0306 16014KT P6SM SCT070
     FM020600 17007KT P6SM BKN015
     FM021600 17010KT P6SM BKN040
     FM022100 15012KT P6SM SCT060 SCT250
     FM030200 15012G22KT P6SM FEW060=



000
FTUS44 KEWX 012200 AAB
TAFSAT
TAF AMD
KSAT 012205Z 0122/0224 17012KT P6SM SCT070
     FM020600 16011KT P6SM BKN015
     FM021600 17010KT P6SM BKN040
     FM022200 14015G25KT P6SM SCT060 SCT250=



000
FTUS44 KEWX 012200 AAA
TAFAUS
TAF AMD
KAUS 012205Z 0122/0224 13011KT P6SM SCT070 SCT090 SCT250
     FM020000 16014KT P6SM FEW060 SCT250
     FM020600 17008KT P6SM BKN015
     FM021600 17012KT P6SM BKN040
     FM022200 15014G24KT P6SM SCT060 SCT250=



000
FTUS44 KEWX 012100 AAB
TAFDRT
TAF AMD
KDRT 012155Z 0122/0218 12012G22KT P6SM SKC
     FM020100 12008KT P6SM SKC
     FM020400 13014KT P6SM SKC
     FM020900 12007KT P6SM BKN015
     FM021600 16014KT P6SM FEW040=



000
FTUS44 KEWX 011800 AAA
TAFSAT
TAF AMD
KSAT 011858Z 0119/0224 17012KT P6SM BKN050
     FM012200 14015G25KT P6SM FEW060 SCT250
     FM020600 16011KT P6SM BKN015
     FM021600 17010KT P6SM BKN040
     FM022200 14015G25KT P6SM SCT060 SCT250=



000
FTUS44 KEWX 011700 AAA
TAFDRT
TAF AMD
KDRT 011757Z 0118/0218 16014KT P6SM FEW060
     FM020100 12008KT P6SM SKC
     FM020400 13014KT P6SM SKC
     FM020900 12007KT P6SM BKN015
     FM021600 16014KT P6SM FEW040=



000
FTUS44 KEWX 011700
TAFDRT
TAF
KDRT 011731Z 0118/0218 12011KT P6SM FEW050
     FM020100 12008KT P6SM SKC
     FM020400 13014KT P6SM SKC
     FM020900 12007KT P6SM BKN015
     FM021600 16014KT P6SM FEW040=



000
FTUS44 KEWX 011700
TAFSAT
TAF
KSAT 011731Z 0118/0224 15014KT P6SM BKN040
     FM012200 14015G25KT P6SM FEW060 SCT250
     FM020600 16011KT P6SM BKN015
     FM021600 17010KT P6SM BKN040
     FM022200 14015G25KT P6SM SCT060 SCT250=



000
FTUS44 KEWX 011700
TAFAUS
TAF
KAUS 011731Z 0118/0224 16015G25KT P6SM SCT050 SCT250
     FM020000 16014KT P6SM FEW060 SCT250
     FM020600 17008KT P6SM BKN015
     FM021600 17012KT P6SM BKN040
     FM022200 15014G24KT P6SM SCT060 SCT250=



000
FTUS44 KEWX 011600 AAC
TAFAUS
TAF AMD
KAUS 011659Z 0117/0218 16016G26KT P6SM SCT045 SCT250
     FM012300 16014KT P6SM FEW060
     FM020600 17007KT P6SM BKN015
     FM021600 18009KT P6SM SCT040=



000
FTUS44 KEWX 011500 AAA
TAFDRT
TAF AMD
KDRT 011506Z 0115/0212 13012KT P6SM FEW020
     FM011700 14014KT P6SM FEW040
     FM020200 13008KT P6SM SKC=



000
FTUS44 KEWX 011400 AAB
TAFAUS
TAF AMD
KAUS 011459Z 0115/0218 19012KT P6SM SCT018
     FM011630 19012KT P6SM SCT035
     FM012300 16014KT P6SM FEW060
     FM020600 17007KT P6SM BKN015
     FM021600 18009KT P6SM SCT040=



000
FTUS44 KEWX 011400 AAA
TAFSAT
TAF AMD
KSAT 011459Z 0115/0218 18011KT P6SM SCT018
     FM011630 17011KT P6SM SCT035
     FM012300 14015KT P6SM FEW060
     FM020600 16011KT P6SM BKN015
     FM021600 17008KT P6SM SCT040=



000
FTUS44 KEWX 011400 AAA
TAFAUS
TAF AMD
KAUS 011406Z 0114/0218 18009KT P6SM BKN008
     FM011500 19010KT P6SM BKN012
     FM011630 19011KT P6SM SCT035
     FM012300 16014KT P6SM FEW060
     FM020600 17007KT P6SM BKN015
     FM021600 18009KT P6SM SCT040=



000
FTUS44 KEWX 011100
TAFDRT
TAF
KDRT 011120Z 0112/0212 12010KT P6SM SKC
      TEMPO 0112/0116 BKN018
     FM011700 14011G17KT P6SM FEW040
     FM020200 13008KT P6SM SKC=



000
FTUS44 KEWX 011100
TAFAUS
TAF
KAUS 011120Z 0112/0218 17006KT P6SM BKN015
     FM011530 19011KT P6SM SCT035
     FM012300 16013G18KT P6SM FEW060
     FM020600 17007KT P6SM BKN015
     FM021600 18009KT P6SM SCT040=



000
FTUS44 KEWX 011100
TAFSAT
TAF
KSAT 011120Z 0112/0218 17008KT P6SM BKN015
     FM011530 17011KT P6SM SCT035
     FM012300 14015G20KT P6SM FEW060
     FM020600 16011KT P6SM BKN015
     FM021600 17008KT P6SM SCT040=



000
FTUS44 KEWX 010500
TAFSAT
TAF
KSAT 010529Z 0106/0212 17006KT P6SM BKN013
     FM011530 18010KT P6SM SCT035
     FM012300 14015G20KT P6SM FEW060
     FM020600 16007KT P6SM BKN015=



000
FTUS44 KEWX 010500
TAFDRT
TAF
KDRT 010529Z 0106/0206 12008KT P6SM SKC
     FM011200 12009KT P6SM BKN015
     FM011700 14011G17KT P6SM FEW030=



000
FTUS44 KEWX 010500
TAFAUS
TAF
KAUS 010529Z 0106/0212 17004KT P6SM BKN015
     FM011530 19010KT P6SM SCT035
     FM012300 16013G18KT P6SM SCT060
     FM020600 17007KT P6SM BKN015=



000
FTUS44 KEWX 312300
TAFDRT
TAF
KDRT 312320Z 0100/0124 12012G17KT P6SM SKC
     FM010300 12008KT P6SM SKC
     FM011200 12009KT P6SM BKN015
     FM011700 14011KT P6SM FEW030=



000
FTUS44 KEWX 312300
TAFAUS
TAF
KAUS 312320Z 0100/0206 15015G20KT P6SM SCT060 SCT250
     FM010100 16010G15KT P6SM FEW060
     FM010700 17003KT P6SM BKN012
     FM011430 17005KT P6SM BKN020
     FM011600 19010KT P6SM SCT035
     FM012100 16013G18KT P6SM SCT060=



000
FTUS44 KEWX 312300
TAFSAT
TAF
KSAT 312320Z 0100/0206 12010KT P6SM SCT080 SCT250
     FM010630 17005KT P6SM BKN012
     FM011430 15005KT P6SM BKN020
     FM011600 19010KT P6SM SCT035
     FM012100 15015G20KT P6SM SCT060=



000
FTUS44 KEWX 311700
TAFSAT
TAF
KSAT 311730Z 3118/0124 16010KT P6SM SCT040
     FM010630 17005KT P6SM BKN012
     FM011430 15005KT P6SM BKN020
     FM011600 19010KT P6SM SCT035=



000
FTUS44 KEWX 311700
TAFAUS
TAF
KAUS 311730Z 3118/0124 19010KT P6SM SCT040
     FM010100 16010G15KT P6SM FEW060
     FM010700 17003KT P6SM BKN012
     FM011430 17005KT P6SM BKN020
     FM011600 19010KT P6SM SCT035=



000
FTUS44 KEWX 311700
TAFDRT
TAF
KDRT 311730Z 3118/0118 14012KT P6SM FEW050
     FM010300 12008KT P6SM SKC
     FM011200 12009KT P6SM BKN015
     FM011700 14011KT P6SM FEW030=



000
FTUS44 KEWX 311400 AAA
TAFDRT
TAF AMD
KDRT 311407Z 3114/0112 13009KT P6SM BKN020
     FM311600 14011KT P6SM SCT030
     FM010300 11007KT P6SM SKC=



000
FTUS44 KEWX 311100
TAFSAT
TAF
KSAT 311130Z 3112/0118 18008KT P6SM BKN015 BKN027
     FM311600 16010KT P6SM SCT035
     FM312000 15013KT P6SM SCT060
     FM010300 16010KT P6SM FEW030
     FM010600 17005KT P6SM BKN015
     FM011600 18010KT P6SM BKN035=



000
FTUS44 KEWX 311100
TAFAUS
TAF
KAUS 311130Z 3112/0118 17005KT P6SM BKN014
     FM311600 17010KT P6SM SCT035
     FM312000 17013KT P6SM SCT060
     FM010200 16008KT P6SM FEW030
     FM010600 17003KT P6SM BKN015
     FM011600 18010KT P6SM BKN035=



000
FTUS44 KEWX 311100
TAFDRT
TAF
KDRT 311130Z 3112/0112 12009KT P6SM SCT019
      TEMPO 3112/3114 BKN019
     FM311700 14011KT P6SM SKC
     FM010300 11007KT P6SM SKC=



000
FTUS44 KEWX 310600 AAA
TAFSAT
TAF AMD
KSAT 310640Z 3107/0112 16010KT P6SM BKN016
     FM311600 16010KT P6SM SCT035
     FM312000 15013G18KT P6SM SCT060
     FM010300 16010KT P6SM FEW030
     FM010600 17005KT P6SM BKN015=



000
FTUS44 KEWX 310600 RRA
TAFDRT
TAF
KDRT 310636Z 3107/0106 12008KT P6SM SKC
     FM311700 15010KT P6SM SKC
     FM010300 11007KT P6SM SKC=



000
FTUS44 KEWX 310600 RRA
TAFAUS
TAF
KAUS 310635Z 3107/0112 15010G15KT P6SM FEW070 BKN150
     FM310800 18003KT P6SM BKN010
     FM311600 17010KT P6SM SCT035
     FM312000 17013G18KT P6SM SCT060
     FM010200 16008KT P6SM FEW030
     FM010600 17003KT P6SM BKN015=



000
FTUS44 KEWX 310600 RRA
TAFSAT
TAF
KSAT 310635Z 3107/0112 14013KT P6SM SCT050 SCT250
     FM310700 17005KT P6SM BKN010
     FM311600 16010KT P6SM SCT035
     FM312000 15013G18KT P6SM SCT060
     FM010300 16010KT P6SM FEW030
     FM010600 17005KT P6SM BKN015=



000
FTUS44 KEWX 302300
TAFDRT
TAF
KDRT 302322Z 3100/3124 11010G15KT P6SM BKN080
      TEMPO 3100/3101 06020G25KT
     FM310100 11008KT P6SM SKC
     FM311700 15010KT P6SM SKC=



000
FTUS44 KEWX 302300
TAFAUS
TAF
KAUS 302322Z 3100/0106 14008KT P6SM FEW060 FEW150 BKN250
     FM310800 18003KT P6SM BKN010
     FM311600 17010KT P6SM SCT035
     FM312000 17013G18KT P6SM SCT060
     FM010200 16008KT P6SM FEW030=



000
FTUS44 KEWX 302300
TAFSAT
TAF
KSAT 302322Z 3100/0106 12012G20KT P6SM SCT060 SCT250
     FM310700 17005KT P6SM BKN010
     FM311600 16010KT P6SM SCT035
     FM312000 15013G18KT P6SM SCT060
     FM010300 16010KT P6SM FEW030=



000
FTUS44 KEWX 301700
TAFSAT
TAF
KSAT 301728Z 3018/3124 12007KT P6SM SCT040 SCT250
     FM310700 15005KT P6SM BKN010
     FM311600 17010KT P6SM SCT035=



000
FTUS44 KEWX 301700
TAFDRT
TAF
KDRT 301728Z 3018/3118 15010KT P6SM FEW050
     FM310100 11008KT P6SM SKC=



000
FTUS44 KEWX 301700
TAFAUS
TAF
KAUS 301728Z 3018/3124 11007KT P6SM SCT040 BKN250
     FM302200 15010KT P6SM SCT045 BKN120 BKN250
     FM310800 17003KT P6SM BKN010
     FM311600 17010KT P6SM SCT035=



000
FTUS44 KEWX 301500 AAC
TAFSAT
TAF AMD
KSAT 301546Z 3016/3118 10004KT P6SM SCT025
      TEMPO 3016/3017 BKN030
     FM301700 11008KT P6SM SCT035 SCT100
     FM310600 15005KT P6SM BKN010=



000
FTUS44 KEWX 301500 AAC
TAFAUS
TAF AMD
KAUS 301545Z 3016/3118 VRB04KT P6SM BKN020
      TEMPO 3016/3017 SCT025
     FM301700 14007KT P6SM SCT030 SCT100
     FM310600 16003KT P6SM BKN010
     FM311600 17008KT P6SM SCT030=



000
FTUS44 KEWX 301300 AAB
TAFSAT
TAF AMD
KSAT 301355Z 3014/3118 00000KT P6SM SCT015
      TEMPO 3014/3016 BKN020
     FM301630 11008KT P6SM SCT035 SCT100
     FM310600 15005KT P6SM BKN010=



000
FTUS44 KEWX 301300 AAB
TAFAUS
TAF AMD
KAUS 301354Z 3014/3118 05004KT P6SM BKN010
      TEMPO 3014/3016 SCT010
     FM301600 14007KT P6SM SCT030 SCT100
     FM310600 16003KT P6SM BKN010
     FM311600 17008KT P6SM SCT030=



000
FTUS44 KEWX 301200 AAA
TAFSAT
TAF AMD
KSAT 301254Z 3013/3118 00000KT P6SM SCT011 SCT150
     FM301700 11008KT P6SM SCT035 SCT100
     FM310600 15005KT P6SM BKN010=



000
FTUS44 KEWX 301200 AAA
TAFAUS
TAF AMD
KAUS 301254Z 3013/3118 11004KT P6SM FEW007 SCT021
     FM301600 14007KT P6SM SCT030 SCT100
     FM310600 16003KT P6SM BKN010
     FM311600 17008KT P6SM SCT030=



    US Dept of Commerce
    National Oceanic and Atmospheric Administration
    National Weather Service
    1325 East West Highway
    Silver Spring, MD 20910
    Page Author: NWS Internet Services Team
Disclaimer
Information Quality
Credits
Glossary
Privacy Policy
Freedom of Information Act (FOIA)
About Us
Career Opportunities